Wetterdaten: Woche 15.11.10 - 21.11.10 (KW46)
Datum Zeit Temp. A. Feuchte A. Luftdruck Regen Wind Richtung Taupunkt Windchill Windben
15.11.2010 00:00 12,8 C 82 % 1007,2 hPa 0,0 l/m 9,1 km/h N-NO 9,8 C 11,2 C 5,0 km/h
15.11.2010 01:00 11,8 C 85 % 1007,4 hPa 0,4 l/m 0,0 km/h N-NO 9,4 C 11,8 C 0,0 km/h
15.11.2010 02:00 11,3 C 85 % 1007,9 hPa 0,0 l/m 0,0 km/h N-NW 8,9 C 11,3 C 0,0 km/h
15.11.2010 03:00 10,7 C 86 % 1008,2 hPa 0,0 l/m 0,0 km/h O 8,5 C 10,7 C 0,0 km/h
15.11.2010 04:00 10,5 C 82 % 1008,1 hPa 0,0 l/m 0,0 km/h N-NO 7,6 C 10,5 C 0,0 km/h
15.11.2010 05:00 9,8 C 82 % 1008,6 hPa 0,0 l/m 0,0 km/h N-NO 6,9 C 9,8 C 0,0 km/h
15.11.2010 06:00 9,6 C 79 % 1008,3 hPa 0,0 l/m 5,8 km/h N 6,1 C 9,6 C 3,2 km/h
15.11.2010 07:00 8,9 C 84 % 1008,9 hPa 0,0 l/m 0,0 km/h N-NO 6,3 C 8,9 C 0,0 km/h
15.11.2010 08:00 8,3 C 86 % 1008,6 hPa 0,7 l/m 0,0 km/h N-NW 6,1 C 8,3 C 0,0 km/h
15.11.2010 09:00 8,9 C 86 % 1008,5 hPa 0,0 l/m 0,0 km/h NW 6,7 C 8,9 C 0,0 km/h
15.11.2010 10:00 9,6 C 85 % 1008,7 hPa 0,0 l/m 0,0 km/h NW 7,2 C 9,6 C 0,0 km/h
15.11.2010 11:00 8,5 C 86 % 1009,5 hPa 0,0 l/m 0,0 km/h N 6,3 C 8,5 C 0,0 km/h
15.11.2010 12:00 7,9 C 86 % 1009,6 hPa 0,7 l/m 0,0 km/h N 5,7 C 7,9 C 0,0 km/h
15.11.2010 13:00 7,6 C 86 % 1009,3 hPa 0,7 l/m 5,8 km/h W 5,4 C 7,6 C 3,2 km/h
15.11.2010 14:00 7,8 C 86 % 1009,7 hPa 0,4 l/m 0,0 km/h NW 5,6 C 7,8 C 0,0 km/h
15.11.2010 15:00 7,6 C 86 % 1010,2 hPa 1,4 l/m 0,0 km/h NW 5,4 C 7,6 C 0,0 km/h
15.11.2010 16:00 7,5 C 85 % 1011,1 hPa 1,8 l/m 0,0 km/h W-NW 5,1 C 7,5 C 0,0 km/h
15.11.2010 17:00 7,3 C 85 % 1011,8 hPa 1,1 l/m 0,0 km/h N 4,9 C 7,3 C 0,0 km/h
15.11.2010 18:00 7,1 C 85 % 1011,9 hPa 1,4 l/m 3,9 km/h N-NO 4,8 C 7,1 C 2,2 km/h
15.11.2010 19:00 6,4 C 86 % 1012,7 hPa 0,7 l/m 0,0 km/h NW 4,2 C 6,4 C 0,0 km/h
15.11.2010 20:00 6,2 C 86 % 1012,9 hPa 0,4 l/m 0,0 km/h NW 4,0 C 6,2 C 0,0 km/h
15.11.2010 21:00 6,2 C 86 % 1013,8 hPa 0,4 l/m 1,3 km/h N-NW 4,0 C 6,2 C 0,7 km/h
15.11.2010 22:00 6,3 C 85 % 1014,1 hPa 0,7 l/m 0,0 km/h W-NW 4,0 C 6,3 C 0,0 km/h
15.11.2010 23:00 6,3 C 85 % 1014,0 hPa 0,0 l/m 0,0 km/h N-NW 4,0 C 6,3 C 0,0 km/h
16.11.2010 00:00 6,4 C 85 % 1013,8 hPa 0,4 l/m 0,0 km/h NW 4,1 C 6,4 C 0,0 km/h
16.11.2010 01:00 6,3 C 85 % 1014,0 hPa 0,4 l/m 0,0 km/h N-NW 4,0 C 6,3 C 0,0 km/h
16.11.2010 02:00 5,9 C 85 % 1014,4 hPa 0,4 l/m 0,0 km/h NW 3,6 C 5,9 C 0,0 km/h
16.11.2010 03:00 5,5 C 86 % 1014,5 hPa 0,7 l/m 1,9 km/h N 3,3 C 5,5 C 1,1 km/h
16.11.2010 04:00 5,3 C 86 % 1014,0 hPa 0,4 l/m 0,0 km/h W-NW 3,2 C 5,3 C 0,0 km/h
16.11.2010 05:00 5,4 C 86 % 1014,8 hPa 0,4 l/m 0,0 km/h NW 3,3 C 5,4 C 0,0 km/h
16.11.2010 06:00 5,4 C 86 % 1015,5 hPa 0,4 l/m 0,0 km/h W-NW 3,3 C 5,4 C 0,0 km/h
16.11.2010 07:00 5,3 C 86 % 1015,8 hPa 0,4 l/m 0,0 km/h NO 3,2 C 5,3 C 0,0 km/h
16.11.2010 08:00 5,3 C 86 % 1016,3 hPa 0,0 l/m 0,0 km/h N-NW 3,2 C 5,3 C 0,0 km/h
16.11.2010 09:00 5,8 C 87 % 1016,7 hPa 0,0 l/m 0,0 km/h NO 3,8 C 5,8 C 0,0 km/h
16.11.2010 10:00 5,9 C 88 % 1017,2 hPa 0,0 l/m 0,0 km/h N-NW 4,1 C 5,9 C 0,0 km/h
16.11.2010 11:00 6,2 C 87 % 1016,7 hPa 0,0 l/m 0,0 km/h N-NO 4,2 C 6,2 C 0,0 km/h
16.11.2010 12:00 7,4 C 85 % 1016,8 hPa 0,0 l/m 0,0 km/h NO 5,0 C 7,4 C 0,0 km/h
16.11.2010 13:00 7,1 C 84 % 1016,6 hPa 0,0 l/m 3,2 km/h N-NO 4,6 C 7,1 C 1,8 km/h
16.11.2010 14:00 6,4 C 86 % 1016,7 hPa 0,0 l/m 0,0 km/h N 4,2 C 6,4 C 0,0 km/h
16.11.2010 15:00 6,4 C 86 % 1016,7 hPa 0,0 l/m 0,0 km/h N-NO 4,2 C 6,4 C 0,0 km/h
16.11.2010 16:00 6,1 C 87 % 1017,0 hPa 0,0 l/m 0,0 km/h N-NW 4,1 C 6,1 C 0,0 km/h
16.11.2010 17:00 5,8 C 87 % 1016,7 hPa 0,0 l/m 0,0 km/h N-NO 3,8 C 5,8 C 0,0 km/h
16.11.2010 18:00 5,8 C 86 % 1016,3 hPa 0,0 l/m 0,0 km/h O 3,6 C 5,8 C 0,0 km/h
16.11.2010 19:00 5,4 C 87 % 1016,4 hPa 0,0 l/m 0,0 km/h N-NO 3,4 C 5,4 C 0,0 km/h
16.11.2010 20:00 5,3 C 87 % 1016,2 hPa 0,0 l/m 0,0 km/h N-NO 3,3 C 5,3 C 0,0 km/h
16.11.2010 21:00 5,2 C 87 % 1015,7 hPa 0,0 l/m 0,0 km/h O-SO 3,2 C 5,2 C 0,0 km/h
16.11.2010 22:00 4,5 C 88 % 1015,1 hPa 0,0 l/m 0,0 km/h O-SO 2,7 C 4,5 C 0,0 km/h
16.11.2010 23:00 3,6 C 87 % 1014,8 hPa 0,0 l/m 0,0 km/h O 1,6 C 3,6 C 0,0 km/h
17.11.2010 00:00 3,6 C 87 % 1014,2 hPa 0,0 l/m 0,0 km/h O 1,6 C 3,6 C 0,0 km/h
17.11.2010 01:00 3,9 C 87 % 1013,3 hPa 0,0 l/m 0,0 km/h O-NO 1,9 C 3,9 C 0,0 km/h
17.11.2010 02:00 4,3 C 87 % 1012,7 hPa 0,0 l/m 0,0 km/h N-NO 2,3 C 4,3 C 0,0 km/h
17.11.2010 03:00 4,8 C 87 % 1011,9 hPa 0,0 l/m 0,0 km/h N-NO 2,8 C 4,8 C 0,0 km/h
17.11.2010 04:00 4,6 C 88 % 1011,3 hPa 0,0 l/m 0,0 km/h N-NO 2,8 C 4,6 C 0,0 km/h
17.11.2010 05:00 4,6 C 88 % 1011,0 hPa 0,0 l/m 0,0 km/h O-NO 2,8 C 4,6 C 0,0 km/h
17.11.2010 06:00 4,2 C 88 % 1010,5 hPa 0,0 l/m 0,0 km/h O-NO 2,4 C 4,2 C 0,0 km/h
17.11.2010 07:00 3,2 C 88 % 1010,0 hPa 0,0 l/m 0,0 km/h O-NO 1,4 C 3,2 C 0,0 km/h
17.11.2010 08:00 3,9 C 87 % 1009,7 hPa 0,0 l/m 0,0 km/h O-NO 1,9 C 3,9 C 0,0 km/h
17.11.2010 09:00 5,3 C 88 % 1009,3 hPa 0,0 l/m 0,0 km/h NO 3,5 C 5,3 C 0,0 km/h
17.11.2010 10:00 6,1 C 87 % 1008,8 hPa 0,0 l/m 0,0 km/h NO 4,1 C 6,1 C 0,0 km/h
17.11.2010 11:00 6,7 C 83 % 1008,3 hPa 0,0 l/m 0,0 km/h NO 4,0 C 6,7 C 0,0 km/h
17.11.2010 12:00 8,5 C 81 % 1007,3 hPa 0,0 l/m 0,0 km/h O-NO 5,4 C 8,5 C 0,0 km/h
17.11.2010 13:00 7,8 C 78 % 1006,4 hPa 0,0 l/m 0,0 km/h O 4,2 C 7,8 C 0,0 km/h
17.11.2010 14:00 7,5 C 79 % 1005,9 hPa 0,0 l/m 0,0 km/h S 4,1 C 7,5 C 0,0 km/h
17.11.2010 15:00 6,3 C 79 % 1005,5 hPa 0,0 l/m 20,1 km/h S-SO 2,9 C -1,5 C 11,2 km/h
17.11.2010 16:00 5,7 C 81 % 1005,5 hPa 0,0 l/m 5,8 km/h SO 2,7 C 5,7 C 3,2 km/h
17.11.2010 17:00 5,3 C 84 % 1005,7 hPa 0,0 l/m 0,0 km/h SW 2,8 C 5,3 C 0,0 km/h
17.11.2010 18:00 4,6 C 85 % 1005,8 hPa 0,0 l/m 0,0 km/h NO 2,3 C 4,6 C 0,0 km/h
17.11.2010 19:00 3,3 C 87 % 1005,6 hPa 0,0 l/m 0,0 km/h SO 1,3 C 3,3 C 0,0 km/h
17.11.2010 20:00 3,4 C 87 % 1005,5 hPa 0,0 l/m 6,5 km/h SO 1,4 C 3,3 C 3,6 km/h
17.11.2010 21:00 4,1 C 87 % 1005,8 hPa 0,0 l/m 0,0 km/h S-SO 2,1 C 4,1 C 0,0 km/h
17.11.2010 22:00 4,3 C 88 % 1005,7 hPa 0,0 l/m 0,0 km/h SO 2,5 C 4,3 C 0,0 km/h
17.11.2010 23:00 4,4 C 88 % 1005,8 hPa 0,0 l/m 0,0 km/h N 2,6 C 4,4 C 0,0 km/h
18.11.2010 00:00 2,9 C 88 % 1005,9 hPa 0,0 l/m 0,0 km/h N-NO 1,1 C 2,9 C 0,0 km/h
18.11.2010 01:00 1,6 C 88 % 1006,0 hPa 0,0 l/m 0,0 km/h N-NO -0,2 C 1,6 C 0,0 km/h
18.11.2010 02:00 0,3 C 88 % 1006,1 hPa 0,0 l/m 0,0 km/h N-NO -1,4 C 0,3 C 0,0 km/h
18.11.2010 03:00 -0,7 C 88 % 1006,2 hPa 0,0 l/m 0,0 km/h SO -2,4 C -0,7 C 0,0 km/h
18.11.2010 04:00 -0,4 C 88 % 1006,5 hPa 0,0 l/m 0,0 km/h O-NO -2,1 C -0,4 C 0,0 km/h
18.11.2010 05:00 0,9 C 87 % 1006,3 hPa 0,0 l/m 0,0 km/h O-SO -1,0 C 0,9 C 0,0 km/h
18.11.2010 06:00 1,1 C 87 % 1006,6 hPa 0,0 l/m 0,0 km/h O -0,8 C 1,1 C 0,0 km/h
18.11.2010 07:00 0,9 C 86 % 1007,0 hPa 0,0 l/m 0,0 km/h O-SO -1,2 C 0,9 C 0,0 km/h
18.11.2010 08:00 2,1 C 86 % 1007,4 hPa 0,0 l/m 0,0 km/h O 0,0 C 2,1 C 0,0 km/h
18.11.2010 09:00 2,9 C 86 % 1007,7 hPa 0,0 l/m 0,0 km/h O-SO 0,8 C 2,9 C 0,0 km/h
18.11.2010 10:00 4,3 C 85 % 1007,9 hPa 0,0 l/m 0,0 km/h O-SO 2,0 C 4,3 C 0,0 km/h
18.11.2010 11:00 5,3 C 86 % 1008,1 hPa 0,0 l/m 0,0 km/h NO 3,2 C 5,3 C 0,0 km/h
18.11.2010 12:00 6,5 C 87 % 1008,3 hPa 0,0 l/m 0,0 km/h W-SW 4,5 C 6,5 C 0,0 km/h
18.11.2010 13:00 7,8 C 84 % 1008,4 hPa 0,0 l/m 15,6 km/h W-SW 5,3 C 2,2 C 8,6 km/h
18.11.2010 14:00 7,2 C 84 % 1008,5 hPa 0,0 l/m 10,4 km/h W-SW 4,7 C 4,2 C 5,8 km/h
18.11.2010 15:00 6,8 C 86 % 1009,0 hPa 0,0 l/m 9,7 km/h S-SW 4,6 C 4,3 C 5,4 km/h
18.11.2010 16:00 6,5 C 86 % 1009,4 hPa 0,0 l/m 26,6 km/h W-SW 4,3 C -3,4 C 14,8 km/h
18.11.2010 17:00 6,5 C 85 % 1009,7 hPa 0,0 l/m 19,4 km/h S-SO 4,2 C -1,0 C 10,8 km/h
18.11.2010 18:00 6,2 C 86 % 1010,4 hPa 0,0 l/m 7,1 km/h NO 4,0 C 5,6 C 4,0 km/h
18.11.2010 19:00 5,8 C 86 % 1011,0 hPa 0,0 l/m 0,0 km/h N-NO 3,6 C 5,8 C 0,0 km/h
18.11.2010 20:00 5,3 C 87 % 1011,6 hPa 0,0 l/m 0,0 km/h O-SO 3,3 C 5,3 C 0,0 km/h
18.11.2010 21:00 4,9 C 88 % 1012,0 hPa 0,0 l/m 0,0 km/h NO 3,1 C 4,9 C 0,0 km/h
18.11.2010 22:00 4,8 C 88 % 1012,0 hPa 0,0 l/m 0,0 km/h N-NO 3,0 C 4,8 C 0,0 km/h
18.11.2010 23:00 4,9 C 88 % 1012,3 hPa 0,0 l/m 0,0 km/h SO 3,1 C 4,9 C 0,0 km/h
19.11.2010 00:00 4,4 C 88 % 1012,5 hPa 0,0 l/m 0,0 km/h O-NO 2,6 C 4,4 C 0,0 km/h
19.11.2010 01:00 4,7 C 87 % 1012,6 hPa 0,0 l/m 0,0 km/h O-NO 2,7 C 4,7 C 0,0 km/h
19.11.2010 02:00 4,9 C 87 % 1012,7 hPa 0,0 l/m 0,0 km/h O-NO 2,9 C 4,9 C 0,0 km/h
19.11.2010 03:00 4,9 C 88 % 1012,6 hPa 0,0 l/m 0,0 km/h O-SO 3,1 C 4,9 C 0,0 km/h
19.11.2010 04:00 5,1 C 88 % 1012,7 hPa 0,0 l/m 0,0 km/h O-SO 3,3 C 5,1 C 0,0 km/h
19.11.2010 05:00 4,9 C 88 % 1013,0 hPa 0,0 l/m 0,0 km/h W 3,1 C 4,9 C 0,0 km/h
19.11.2010 06:00 4,4 C 88 % 1013,3 hPa 0,0 l/m 0,0 km/h SO 2,6 C 4,4 C 0,0 km/h
19.11.2010 07:00 3,9 C 87 % 1013,5 hPa 0,0 l/m 0,0 km/h O-NO 1,9 C 3,9 C 0,0 km/h
19.11.2010 08:00 4,9 C 86 % 1014,1 hPa 0,0 l/m 0,0 km/h SO 2,8 C 4,9 C 0,0 km/h
19.11.2010 09:00 6,3 C 87 % 1014,7 hPa 0,4 l/m 0,0 km/h SO 4,3 C 6,3 C 0,0 km/h
19.11.2010 10:00 8,4 C 87 % 1015,0 hPa 0,0 l/m 0,0 km/h S-SW 6,4 C 8,4 C 0,0 km/h
19.11.2010 11:00 9,3 C 80 % 1014,9 hPa 0,0 l/m 5,8 km/h S-SW 6,0 C 9,3 C 3,2 km/h
19.11.2010 12:00 10,4 C 76 % 1014,5 hPa 0,0 l/m 7,8 km/h S-SW 6,4 C 9,4 C 4,3 km/h
19.11.2010 13:00 11,6 C 69 % 1014,2 hPa 0,0 l/m 20,1 km/h SW 6,1 C 5,3 C 11,2 km/h
19.11.2010 14:00 10,4 C 73 % 1013,9 hPa 0,0 l/m 9,1 km/h W-SW 5,8 C 8,6 C 5,0 km/h
19.11.2010 15:00 9,2 C 76 % 1013,9 hPa 0,0 l/m 11,0 km/h W-SW 5,2 C 6,1 C 6,1 km/h
19.11.2010 16:00 9,0 C 75 % 1014,0 hPa 0,0 l/m 8,4 km/h S-SW 4,8 C 7,5 C 4,7 km/h
19.11.2010 17:00 6,2 C 81 % 1014,6 hPa 0,0 l/m 0,0 km/h O-SO 3,2 C 6,2 C 0,0 km/h
19.11.2010 18:00 4,1 C 86 % 1015,1 hPa 0,0 l/m 0,0 km/h O 2,0 C 4,1 C 0,0 km/h
19.11.2010 19:00 4,6 C 87 % 1015,5 hPa 0,0 l/m 0,0 km/h SO 2,6 C 4,6 C 0,0 km/h
19.11.2010 20:00 2,9 C 87 % 1015,5 hPa 0,0 l/m 0,0 km/h O 1,0 C 2,9 C 0,0 km/h
19.11.2010 21:00 3,2 C 87 % 1015,5 hPa 0,0 l/m 3,2 km/h O-SO 1,2 C 3,2 C 1,8 km/h
19.11.2010 22:00 2,7 C 87 % 1015,5 hPa 0,0 l/m 0,0 km/h NO 0,8 C 2,7 C 0,0 km/h
19.11.2010 23:00 3,9 C 87 % 1015,4 hPa 0,0 l/m 0,0 km/h O-NO 1,9 C 3,9 C 0,0 km/h
20.11.2010 00:00 4,2 C 88 % 1015,0 hPa 0,0 l/m 0,0 km/h O-NO 2,4 C 4,2 C 0,0 km/h
20.11.2010 01:00 4,3 C 88 % 1014,9 hPa 0,0 l/m 3,9 km/h O-SO 2,5 C 4,3 C 2,2 km/h
20.11.2010 02:00 2,5 C 88 % 1014,6 hPa 0,0 l/m 0,0 km/h O 0,7 C 2,5 C 0,0 km/h
20.11.2010 03:00 0,9 C 88 % 1014,1 hPa 0,0 l/m 0,0 km/h O-NO -0,9 C 0,9 C 0,0 km/h
20.11.2010 04:00 0,8 C 87 % 1013,6 hPa 0,0 l/m 0,0 km/h O-NO -1,1 C 0,8 C 0,0 km/h
20.11.2010 05:00 0,3 C 88 % 1013,4 hPa 0,0 l/m 0,0 km/h NO -1,4 C 0,3 C 0,0 km/h
20.11.2010 06:00 -0,1 C 88 % 1013,5 hPa 0,0 l/m 0,0 km/h O-NO -1,8 C -0,1 C 0,0 km/h
20.11.2010 07:00 -0,4 C 87 % 1013,3 hPa 0,0 l/m 0,0 km/h NO -2,3 C -0,4 C 0,0 km/h
20.11.2010 08:00 0,1 C 87 % 1013,5 hPa 0,0 l/m 0,0 km/h O-NO -1,8 C 0,1 C 0,0 km/h
20.11.2010 09:00 2,8 C 86 % 1013,3 hPa 0,0 l/m 0,0 km/h NO 0,7 C 2,8 C 0,0 km/h
20.11.2010 10:00 8,5 C 87 % 1012,8 hPa 0,0 l/m 0,0 km/h N 6,5 C 8,5 C 0,0 km/h
20.11.2010 11:00 9,5 C 78 % 1012,1 hPa 0,0 l/m 0,0 km/h W-NW 5,9 C 9,5 C 0,0 km/h
20.11.2010 12:00 8,5 C 79 % 1011,2 hPa 0,0 l/m 1,9 km/h N-NO 5,1 C 8,5 C 1,1 km/h
20.11.2010 13:00 8,9 C 79 % 1011,0 hPa 0,0 l/m 0,0 km/h W-NW 5,5 C 8,9 C 0,0 km/h
20.11.2010 14:00 9,0 C 77 % 1010,3 hPa 0,0 l/m 0,0 km/h W-NW 5,2 C 9,0 C 0,0 km/h
20.11.2010 15:00 9,0 C 79 % 1009,8 hPa 0,0 l/m 0,0 km/h W-NW 5,6 C 9,0 C 0,0 km/h
20.11.2010 16:00 4,9 C 84 % 1009,6 hPa 0,0 l/m 0,0 km/h W-NW 2,4 C 4,9 C 0,0 km/h
20.11.2010 17:00 3,0 C 87 % 1009,4 hPa 0,0 l/m 0,0 km/h W-NW 1,1 C 3,0 C 0,0 km/h
20.11.2010 18:00 1,9 C 88 % 1008,9 hPa 0,0 l/m 0,0 km/h N-NW 0,1 C 1,9 C 0,0 km/h
20.11.2010 19:00 2,8 C 87 % 1008,4 hPa 0,0 l/m 0,0 km/h W-NW 0,9 C 2,8 C 0,0 km/h
20.11.2010 20:00 1,8 C 88 % 1007,4 hPa 0,0 l/m 0,0 km/h W-NW 0,0 C 1,8 C 0,0 km/h
20.11.2010 21:00 3,6 C 86 % 1007,7 hPa 0,0 l/m 0,0 km/h W-NW 1,5 C 3,6 C 0,0 km/h
20.11.2010 22:00 3,7 C 86 % 1007,4 hPa 0,0 l/m 0,0 km/h SO 1,6 C 3,7 C 0,0 km/h
20.11.2010 23:00 3,6 C 86 % 1006,9 hPa 0,0 l/m 0,0 km/h O-NO 1,5 C 3,6 C 0,0 km/h
21.11.2010 00:00 3,5 C 86 % 1006,4 hPa 0,0 l/m 0,0 km/h O-NO 1,4 C 3,5 C 0,0 km/h
21.11.2010 01:00 3,1 C 86 % 1006,0 hPa 0,0 l/m 3,2 km/h W-NW 1,0 C 3,1 C 1,8 km/h
21.11.2010 02:00 2,8 C 86 % 1005,9 hPa 0,0 l/m 0,0 km/h NW 0,7 C 2,8 C 0,0 km/h
21.11.2010 03:00 2,8 C 86 % 1005,3 hPa 0,0 l/m 0,0 km/h W-NW 0,7 C 2,8 C 0,0 km/h
21.11.2010 04:00 2,8 C 86 % 1004,9 hPa 0,0 l/m 0,0 km/h W-NW 0,7 C 2,8 C 0,0 km/h
21.11.2010 05:00 2,6 C 86 % 1004,2 hPa 0,0 l/m 0,0 km/h N-NO 0,5 C 2,6 C 0,0 km/h
21.11.2010 06:00 2,3 C 86 % 1003,9 hPa 0,0 l/m 0,0 km/h N-NO 0,2 C 2,3 C 0,0 km/h
21.11.2010 07:00 1,8 C 86 % 1004,0 hPa 0,0 l/m 0,0 km/h N -0,3 C 1,8 C 0,0 km/h
21.11.2010 08:00 1,9 C 87 % 1004,1 hPa 0,0 l/m 0,0 km/h W -0,0 C 1,9 C 0,0 km/h
21.11.2010 09:00 2,3 C 87 % 1004,3 hPa 0,0 l/m 0,0 km/h W 0,4 C 2,3 C 0,0 km/h
21.11.2010 10:00 3,1 C 87 % 1004,4 hPa 0,0 l/m 0,0 km/h W 1,2 C 3,1 C 0,0 km/h
21.11.2010 11:00 4,2 C 88 % 1004,3 hPa 0,0 l/m 0,0 km/h W-NW 2,4 C 4,2 C 0,0 km/h
21.11.2010 12:00 5,8 C 85 % 1003,7 hPa 0,0 l/m 0,0 km/h W-NW 3,5 C 5,8 C 0,0 km/h
21.11.2010 13:00 6,5 C 80 % 1003,4 hPa 0,0 l/m 0,0 km/h W 3,3 C 6,5 C 0,0 km/h
21.11.2010 14:00 5,6 C 81 % 1002,7 hPa 0,0 l/m 0,0 km/h W 2,6 C 5,6 C 0,0 km/h
21.11.2010 15:00 4,6 C 84 % 1002,7 hPa 0,0 l/m 0,0 km/h NW 2,1 C 4,6 C 0,0 km/h
21.11.2010 16:00 4,3 C 85 % 1002,4 hPa 0,0 l/m 0,0 km/h W-NW 2,0 C 4,3 C 0,0 km/h
21.11.2010 17:00 3,9 C 87 % 1002,6 hPa 0,0 l/m 0,0 km/h W-NW 1,9 C 3,9 C 0,0 km/h
21.11.2010 18:00 3,9 C 87 % 1002,5 hPa 0,0 l/m 0,0 km/h W-NW 1,9 C 3,9 C 0,0 km/h
21.11.2010 19:00 3,8 C 88 % 1001,9 hPa 0,0 l/m 0,0 km/h W-NW 2,0 C 3,8 C 0,0 km/h
21.11.2010 20:00 3,8 C 88 % 1001,8 hPa 0,0 l/m 0,0 km/h NO 2,0 C 3,8 C 0,0 km/h
21.11.2010 21:00 3,9 C 88 % 1001,3 hPa 0,0 l/m 0,0 km/h O-SO 2,1 C 3,9 C 0,0 km/h
21.11.2010 22:00 3,8 C 88 % 1001,3 hPa 0,0 l/m 0,0 km/h O-SO 2,0 C 3,8 C 0,0 km/h
21.11.2010 23:00 3,8 C 87 % 1001,1 hPa 0,0 l/m 0,0 km/h S 1,8 C 3,8 C 0,0 km/h
Min-Datum _ 18.11.10 19.11.10 21.11.10 - 15.11.10 - 18.11.10 18.11.10 15.11.10
_ Min-Zeit 03:30 13:30 23:30 - 01:30 - 03:30 16:30 01:30
Minimum _ -0,7 C 69 % 1001,1 hPa - 0,0 km/h - -2,4 C -3,4 C 0,0 km/h
Max-Datum _ 15.11.10 16.11.10 16.11.10 15.11.10 18.11.10 - 15.11.10 15.11.10 18.11.10
_ Max-Zeit 00:30 10:30 10:30 16:30 16:30 - 00:30 01:30 16:30
Maximum _ 12,8 C 88 % 1017,2 hPa 1,8 l/m 26,6 km/h
W-SW
- 9,8 C 11,8 C 14,8 km/h
W-SW
Durchschnitt _ 5,3 C 85 % 1010,2 hPa #14,2 l/m 1,3 km/h N-NO 3,0 C 4,9 C 0,7 km/h